sensor_id;sensor_type;location;lat;lon;timestamp;temperature;humidity
31046;DHT22;17711;54.018;9.300;2023-01-09T00:00:18;4.20;99.90
31046;DHT22;17711;54.018;9.300;2023-01-09T00:02:47;4.20;99.90
31046;DHT22;17711;54.018;9.300;2023-01-09T00:05:17;4.20;99.90
31046;DHT22;17711;54.018;9.300;2023-01-09T00:07:45;4.20;99.90
31046;DHT22;17711;54.018;9.300;2023-01-09T00:10:34;4.20;99.90
31046;DHT22;17711;54.018;9.300;2023-01-09T00:13:02;4.20;99.90
31046;DHT22;17711;54.018;9.300;2023-01-09T00:15:31;4.20;99.90
31046;DHT22;17711;54.018;9.300;2023-01-09T00:17:59;4.20;99.90
31046;DHT22;17711;54.018;9.300;2023-01-09T00:20:28;4.20;99.90
31046;DHT22;17711;54.018;9.300;2023-01-09T00:22:56;4.20;99.90
31046;DHT22;17711;54.018;9.300;2023-01-09T00:25:24;4.20;99.90
31046;DHT22;17711;54.018;9.300;2023-01-09T00:27:54;4.20;99.90
31046;DHT22;17711;54.018;9.300;2023-01-09T00:30:23;4.20;99.90
31046;DHT22;17711;54.018;9.300;2023-01-09T00:32:53;4.10;99.90
31046;DHT22;17711;54.018;9.300;2023-01-09T00:35:23;4.00;99.90
31046;DHT22;17711;54.018;9.300;2023-01-09T00:37:52;4.00;99.90
31046;DHT22;17711;54.018;9.300;2023-01-09T00:40:20;4.00;99.90
31046;DHT22;17711;54.018;9.300;2023-01-09T00:42:53;4.00;99.90
31046;DHT22;17711;54.018;9.300;2023-01-09T00:45:28;4.00;99.90
31046;DHT22;17711;54.018;9.300;2023-01-09T00:48:00;4.10;99.90
31046;DHT22;17711;54.018;9.300;2023-01-09T00:50:30;4.10;99.90
31046;DHT22;17711;54.018;9.300;2023-01-09T00:53:02;4.10;99.90
31046;DHT22;17711;54.018;9.300;2023-01-09T00:55:33;4.10;99.90
31046;DHT22;17711;54.018;9.300;2023-01-09T00:58:04;4.10;99.90
31046;DHT22;17711;54.018;9.300;2023-01-09T01:00:33;4.10;99.90
31046;DHT22;17711;54.018;9.300;2023-01-09T01:03:02;4.10;99.90
31046;DHT22;17711;54.018;9.300;2023-01-09T01:05:45;4.10;99.90
31046;DHT22;17711;54.018;9.300;2023-01-09T01:08:31;4.10;99.90
31046;DHT22;17711;54.018;9.300;2023-01-09T01:11:03;4.10;99.90
31046;DHT22;17711;54.018;9.300;2023-01-09T01:13:33;4.10;99.90
31046;DHT22;17711;54.018;9.300;2023-01-09T01:16:03;4.10;99.90
31046;DHT22;17711;54.018;9.300;2023-01-09T01:18:32;4.10;99.90
31046;DHT22;17711;54.018;9.300;2023-01-09T01:21:05;4.10;99.90
31046;DHT22;17711;54.018;9.300;2023-01-09T01:23:34;4.10;99.90
31046;DHT22;17711;54.018;9.300;2023-01-09T01:26:04;4.10;99.90
31046;DHT22;17711;54.018;9.300;2023-01-09T01:28:34;4.10;99.90
31046;DHT22;17711;54.018;9.300;2023-01-09T01:31:03;4.10;99.90
31046;DHT22;17711;54.018;9.300;2023-01-09T01:33:32;4.00;99.90
31046;DHT22;17711;54.018;9.300;2023-01-09T01:36:02;4.00;99.90
31046;DHT22;17711;54.018;9.300;2023-01-09T01:38:32;4.10;99.90
31046;DHT22;17711;54.018;9.300;2023-01-09T01:41:01;4.10;99.90
31046;DHT22;17711;54.018;9.300;2023-01-09T01:43:49;4.10;99.90
31046;DHT22;17711;54.018;9.300;2023-01-09T01:46:37;4.10;99.90
31046;DHT22;17711;54.018;9.300;2023-01-09T01:49:12;4.10;99.90
31046;DHT22;17711;54.018;9.300;2023-01-09T01:51:47;4.20;99.90
31046;DHT22;17711;54.018;9.300;2023-01-09T01:54:23;4.20;99.90
31046;DHT22;17711;54.018;9.300;2023-01-09T01:56:55;4.20;99.90
31046;DHT22;17711;54.018;9.300;2023-01-09T01:59:30;4.30;99.90
31046;DHT22;17711;54.018;9.300;2023-01-09T02:02:01;4.30;99.90
31046;DHT22;17711;54.018;9.300;2023-01-09T02:04:32;4.30;99.90
31046;DHT22;17711;54.018;9.300;2023-01-09T02:07:19;4.40;99.90
31046;DHT22;17711;54.018;9.300;2023-01-09T02:09:48;4.40;99.90
31046;DHT22;17711;54.018;9.300;2023-01-09T02:12:18;4.50;99.90
31046;DHT22;17711;54.018;9.300;2023-01-09T02:14:53;4.60;99.90
31046;DHT22;17711;54.018;9.300;2023-01-09T02:17:37;4.70;99.90
31046;DHT22;17711;54.018;9.300;2023-01-09T02:20:35;4.70;99.90
31046;DHT22;17711;54.018;9.300;2023-01-09T02:32:35;5.10;99.90
31046;DHT22;17711;54.018;9.300;2023-01-09T02:38:05;5.30;99.90
31046;DHT22;17711;54.018;9.300;2023-01-09T02:40:38;5.30;99.90
31046;DHT22;17711;54.018;9.300;2023-01-09T02:43:09;5.40;99.90
31046;DHT22;17711;54.018;9.300;2023-01-09T02:45:39;5.40;99.90
31046;DHT22;17711;54.018;9.300;2023-01-09T02:48:09;5.50;99.90
31046;DHT22;17711;54.018;9.300;2023-01-09T02:50:41;5.60;99.90
31046;DHT22;17711;54.018;9.300;2023-01-09T02:53:28;5.70;99.90
31046;DHT22;17711;54.018;9.300;2023-01-09T02:56:22;5.70;99.90
31046;DHT22;17711;54.018;9.300;2023-01-09T02:59:15;5.80;99.90
31046;DHT22;17711;54.018;9.300;2023-01-09T03:02:00;5.80;99.90
31046;DHT22;17711;54.018;9.300;2023-01-09T03:04:42;5.90;99.90
31046;DHT22;17711;54.018;9.300;2023-01-09T03:07:18;5.90;99.90
31046;DHT22;17711;54.018;9.300;2023-01-09T03:10:13;6.00;99.90
31046;DHT22;17711;54.018;9.300;2023-01-09T03:12:44;6.10;99.90
31046;DHT22;17711;54.018;9.300;2023-01-09T03:15:14;6.10;99.90
31046;DHT22;17711;54.018;9.300;2023-01-09T03:17:47;6.20;99.90
31046;DHT22;17711;54.018;9.300;2023-01-09T03:20:20;6.20;99.90
31046;DHT22;17711;54.018;9.300;2023-01-09T03:22:53;6.30;99.90
31046;DHT22;17711;54.018;9.300;2023-01-09T03:25:23;6.30;99.90
31046;DHT22;17711;54.018;9.300;2023-01-09T03:27:55;6.40;99.90
31046;DHT22;17711;54.018;9.300;2023-01-09T03:30:25;6.40;99.90
31046;DHT22;17711;54.018;9.300;2023-01-09T03:33:06;6.40;99.90
31046;DHT22;17711;54.018;9.300;2023-01-09T03:35:36;6.50;99.90
31046;DHT22;17711;54.018;9.300;2023-01-09T03:38:04;6.50;99.90
31046;DHT22;17711;54.018;9.300;2023-01-09T03:40:34;6.60;99.90
31046;DHT22;17711;54.018;9.300;2023-01-09T03:43:02;6.60;99.90
31046;DHT22;17711;54.018;9.300;2023-01-09T03:45:31;6.60;99.90
31046;DHT22;17711;54.018;9.300;2023-01-09T03:47:59;6.60;99.90
31046;DHT22;17711;54.018;9.300;2023-01-09T03:50:28;6.60;99.90
31046;DHT22;17711;54.018;9.300;2023-01-09T03:52:57;6.60;99.90
31046;DHT22;17711;54.018;9.300;2023-01-09T03:55:26;6.70;99.90
31046;DHT22;17711;54.018;9.300;2023-01-09T03:57:54;6.70;99.90
31046;DHT22;17711;54.018;9.300;2023-01-09T04:00:23;6.70;99.90
31046;DHT22;17711;54.018;9.300;2023-01-09T04:02:51;6.70;99.90
31046;DHT22;17711;54.018;9.300;2023-01-09T04:05:20;6.70;99.90
31046;DHT22;17711;54.018;9.300;2023-01-09T04:07:49;6.70;99.90
31046;DHT22;17711;54.018;9.300;2023-01-09T04:10:19;6.70;99.90
31046;DHT22;17711;54.018;9.300;2023-01-09T04:12:47;6.70;99.90
31046;DHT22;17711;54.018;9.300;2023-01-09T04:15:16;6.80;99.90
31046;DHT22;17711;54.018;9.300;2023-01-09T04:17:44;6.80;99.90
31046;DHT22;17711;54.018;9.300;2023-01-09T04:20:13;6.80;99.90
31046;DHT22;17711;54.018;9.300;2023-01-09T04:22:42;6.80;99.90
31046;DHT22;17711;54.018;9.300;2023-01-09T04:25:11;6.80;99.90
31046;DHT22;17711;54.018;9.300;2023-01-09T04:27:41;6.90;99.90
31046;DHT22;17711;54.018;9.300;2023-01-09T04:30:10;6.90;99.90
31046;DHT22;17711;54.018;9.300;2023-01-09T04:32:40;6.90;99.90
31046;DHT22;17711;54.018;9.300;2023-01-09T04:35:09;6.90;99.90
31046;DHT22;17711;54.018;9.300;2023-01-09T04:37:38;6.90;99.90
31046;DHT22;17711;54.018;9.300;2023-01-09T04:40:07;6.90;99.90
31046;DHT22;17711;54.018;9.300;2023-01-09T04:42:38;6.90;99.90
31046;DHT22;17711;54.018;9.300;2023-01-09T04:45:10;6.90;99.90
31046;DHT22;17711;54.018;9.300;2023-01-09T04:47:41;7.00;99.90
31046;DHT22;17711;54.018;9.300;2023-01-09T04:50:11;6.90;99.90
31046;DHT22;17711;54.018;9.300;2023-01-09T04:52:39;6.90;99.90
31046;DHT22;17711;54.018;9.300;2023-01-09T04:55:08;6.90;99.90
31046;DHT22;17711;54.018;9.300;2023-01-09T04:57:37;7.00;99.90
31046;DHT22;17711;54.018;9.300;2023-01-09T05:00:06;7.00;99.90
31046;DHT22;17711;54.018;9.300;2023-01-09T05:02:42;7.00;99.90
31046;DHT22;17711;54.018;9.300;2023-01-09T05:05:11;6.90;99.90
31046;DHT22;17711;54.018;9.300;2023-01-09T05:07:39;7.00;99.90
31046;DHT22;17711;54.018;9.300;2023-01-09T05:10:09;7.00;99.90
31046;DHT22;17711;54.018;9.300;2023-01-09T05:12:38;7.00;99.90
31046;DHT22;17711;54.018;9.300;2023-01-09T05:15:19;7.00;99.90
31046;DHT22;17711;54.018;9.300;2023-01-09T05:17:49;7.00;99.90
31046;DHT22;17711;54.018;9.300;2023-01-09T05:20:17;7.00;99.90
31046;DHT22;17711;54.018;9.300;2023-01-09T05:22:46;6.90;99.90
31046;DHT22;17711;54.018;9.300;2023-01-09T05:25:15;6.90;99.90
31046;DHT22;17711;54.018;9.300;2023-01-09T05:27:43;6.90;99.90
31046;DHT22;17711;54.018;9.300;2023-01-09T05:30:12;6.90;99.90
31046;DHT22;17711;54.018;9.300;2023-01-09T05:32:44;6.90;99.90
31046;DHT22;17711;54.018;9.300;2023-01-09T05:35:14;6.90;99.90
31046;DHT22;17711;54.018;9.300;2023-01-09T05:37:43;6.90;99.90
31046;DHT22;17711;54.018;9.300;2023-01-09T05:40:12;6.80;99.90
31046;DHT22;17711;54.018;9.300;2023-01-09T05:42:42;6.80;99.90
31046;DHT22;17711;54.018;9.300;2023-01-09T05:45:10;6.80;99.90
31046;DHT22;17711;54.018;9.300;2023-01-09T05:47:39;6.70;99.90
31046;DHT22;17711;54.018;9.300;2023-01-09T05:50:09;6.70;99.90
31046;DHT22;17711;54.018;9.300;2023-01-09T05:52:39;6.70;99.90
31046;DHT22;17711;54.018;9.300;2023-01-09T05:55:08;6.70;99.90
31046;DHT22;17711;54.018;9.300;2023-01-09T05:57:38;6.70;99.90
31046;DHT22;17711;54.018;9.300;2023-01-09T06:00:08;6.80;99.90
31046;DHT22;17711;54.018;9.300;2023-01-09T06:02:37;6.80;99.90
31046;DHT22;17711;54.018;9.300;2023-01-09T06:05:07;6.70;99.90
31046;DHT22;17711;54.018;9.300;2023-01-09T06:07:35;6.70;99.90
31046;DHT22;17711;54.018;9.300;2023-01-09T06:10:10;6.70;99.90
31046;DHT22;17711;54.018;9.300;2023-01-09T06:12:39;6.70;99.90
31046;DHT22;17711;54.018;9.300;2023-01-09T06:15:09;6.70;99.90
31046;DHT22;17711;54.018;9.300;2023-01-09T06:17:38;6.60;99.90
31046;DHT22;17711;54.018;9.300;2023-01-09T06:20:07;6.70;99.90
31046;DHT22;17711;54.018;9.300;2023-01-09T06:22:36;6.60;99.90
31046;DHT22;17711;54.018;9.300;2023-01-09T06:25:05;6.60;99.90
31046;DHT22;17711;54.018;9.300;2023-01-09T06:27:36;6.60;99.90
31046;DHT22;17711;54.018;9.300;2023-01-09T06:30:05;6.60;99.90
31046;DHT22;17711;54.018;9.300;2023-01-09T06:32:34;6.60;99.90
31046;DHT22;17711;54.018;9.300;2023-01-09T06:35:03;6.60;99.90
31046;DHT22;17711;54.018;9.300;2023-01-09T06:37:32;6.50;99.90
31046;DHT22;17711;54.018;9.300;2023-01-09T06:40:00;6.40;99.90
31046;DHT22;17711;54.018;9.300;2023-01-09T06:42:29;6.40;99.90
31046;DHT22;17711;54.018;9.300;2023-01-09T06:44:59;6.50;99.90
31046;DHT22;17711;54.018;9.300;2023-01-09T06:47:27;6.40;99.90
31046;DHT22;17711;54.018;9.300;2023-01-09T06:49:56;6.30;99.90
31046;DHT22;17711;54.018;9.300;2023-01-09T06:52:24;6.20;99.90
31046;DHT22;17711;54.018;9.300;2023-01-09T06:54:53;6.10;99.90
31046;DHT22;17711;54.018;9.300;2023-01-09T06:57:21;6.00;99.90
31046;DHT22;17711;54.018;9.300;2023-01-09T07:00:10;5.90;99.90
31046;DHT22;17711;54.018;9.300;2023-01-09T07:02:39;5.90;99.90
31046;DHT22;17711;54.018;9.300;2023-01-09T07:05:08;5.80;99.90
31046;DHT22;17711;54.018;9.300;2023-01-09T07:07:38;5.80;99.90
31046;DHT22;17711;54.018;9.300;2023-01-09T07:10:08;5.70;99.90
31046;DHT22;17711;54.018;9.300;2023-01-09T07:12:37;5.70;99.90
31046;DHT22;17711;54.018;9.300;2023-01-09T07:15:06;5.70;99.90
31046;DHT22;17711;54.018;9.300;2023-01-09T07:17:36;5.70;99.90
31046;DHT22;17711;54.018;9.300;2023-01-09T07:20:06;5.70;99.90
31046;DHT22;17711;54.018;9.300;2023-01-09T07:22:35;5.60;99.90
31046;DHT22;17711;54.018;9.300;2023-01-09T07:25:04;5.50;99.90
31046;DHT22;17711;54.018;9.300;2023-01-09T07:27:33;5.40;99.90
31046;DHT22;17711;54.018;9.300;2023-01-09T07:30:07;5.30;99.90
31046;DHT22;17711;54.018;9.300;2023-01-09T07:32:52;5.20;99.90
31046;DHT22;17711;54.018;9.300;2023-01-09T07:35:21;5.10;99.90
31046;DHT22;17711;54.018;9.300;2023-01-09T07:37:49;5.10;99.90
31046;DHT22;17711;54.018;9.300;2023-01-09T07:40:18;5.00;99.90
31046;DHT22;17711;54.018;9.300;2023-01-09T07:42:46;5.00;99.90
31046;DHT22;17711;54.018;9.300;2023-01-09T07:45:15;5.00;99.90
31046;DHT22;17711;54.018;9.300;2023-01-09T07:47:44;5.00;99.90
31046;DHT22;17711;54.018;9.300;2023-01-09T07:50:14;5.00;99.90
31046;DHT22;17711;54.018;9.300;2023-01-09T07:52:43;5.00;99.90
31046;DHT22;17711;54.018;9.300;2023-01-09T07:55:14;5.00;99.90
31046;DHT22;17711;54.018;9.300;2023-01-09T07:57:47;5.00;99.90
31046;DHT22;17711;54.018;9.300;2023-01-09T08:00:16;5.00;99.90
31046;DHT22;17711;54.018;9.300;2023-01-09T08:02:50;5.00;99.90
31046;DHT22;17711;54.018;9.300;2023-01-09T08:05:21;5.00;99.90
31046;DHT22;17711;54.018;9.300;2023-01-09T08:07:49;5.00;99.90
31046;DHT22;17711;54.018;9.300;2023-01-09T08:10:18;5.00;99.90
31046;DHT22;17711;54.018;9.300;2023-01-09T08:12:47;5.10;99.90
31046;DHT22;17711;54.018;9.300;2023-01-09T08:15:16;5.10;99.90
31046;DHT22;17711;54.018;9.300;2023-01-09T08:17:45;5.10;99.90
31046;DHT22;17711;54.018;9.300;2023-01-09T08:20:15;5.20;99.90
31046;DHT22;17711;54.018;9.300;2023-01-09T08:22:46;5.20;99.90
31046;DHT22;17711;54.018;9.300;2023-01-09T08:25:19;5.20;99.90
31046;DHT22;17711;54.018;9.300;2023-01-09T08:27:48;5.30;99.90
31046;DHT22;17711;54.018;9.300;2023-01-09T08:30:17;5.30;99.90
31046;DHT22;17711;54.018;9.300;2023-01-09T08:32:48;5.40;99.90
31046;DHT22;17711;54.018;9.300;2023-01-09T08:35:17;5.50;99.90
31046;DHT22;17711;54.018;9.300;2023-01-09T08:37:47;5.60;99.90
31046;DHT22;17711;54.018;9.300;2023-01-09T08:40:16;5.70;99.90
31046;DHT22;17711;54.018;9.300;2023-01-09T08:42:45;5.80;99.90
31046;DHT22;17711;54.018;9.300;2023-01-09T08:45:31;5.80;99.90
31046;DHT22;17711;54.018;9.300;2023-01-09T08:48:17;5.90;99.90
31046;DHT22;17711;54.018;9.300;2023-01-09T08:50:46;6.00;99.90
31046;DHT22;17711;54.018;9.300;2023-01-09T08:53:16;6.00;99.90
31046;DHT22;17711;54.018;9.300;2023-01-09T08:56:03;6.10;99.90
31046;DHT22;17711;54.018;9.300;2023-01-09T08:58:32;6.10;99.90
31046;DHT22;17711;54.018;9.300;2023-01-09T09:01:04;6.20;99.90
31046;DHT22;17711;54.018;9.300;2023-01-09T09:03:33;6.20;99.90
31046;DHT22;17711;54.018;9.300;2023-01-09T09:06:01;6.30;99.90
31046;DHT22;17711;54.018;9.300;2023-01-09T09:08:31;6.30;99.90
31046;DHT22;17711;54.018;9.300;2023-01-09T09:11:00;6.30;99.90
31046;DHT22;17711;54.018;9.300;2023-01-09T09:13:28;6.40;99.90
31046;DHT22;17711;54.018;9.300;2023-01-09T09:15:56;6.50;99.90
31046;DHT22;17711;54.018;9.300;2023-01-09T09:18:25;6.70;99.90
31046;DHT22;17711;54.018;9.300;2023-01-09T09:20:53;7.00;99.90
31046;DHT22;17711;54.018;9.300;2023-01-09T09:23:22;7.40;99.90
31046;DHT22;17711;54.018;9.300;2023-01-09T09:25:52;7.50;99.90
31046;DHT22;17711;54.018;9.300;2023-01-09T09:28:20;7.70;99.90
31046;DHT22;17711;54.018;9.300;2023-01-09T09:30:49;7.90;99.90
31046;DHT22;17711;54.018;9.300;2023-01-09T09:33:17;7.80;99.90
31046;DHT22;17711;54.018;9.300;2023-01-09T09:35:46;7.60;99.90
31046;DHT22;17711;54.018;9.300;2023-01-09T09:38:15;7.50;99.90
31046;DHT22;17711;54.018;9.300;2023-01-09T09:41:25;7.30;99.90
31046;DHT22;17711;54.018;9.300;2023-01-09T09:44:42;7.20;99.90
31046;DHT22;17711;54.018;9.300;2023-01-09T09:47:43;7.10;99.90
31046;DHT22;17711;54.018;9.300;2023-01-09T09:50:25;7.10;99.90
31046;DHT22;17711;54.018;9.300;2023-01-09T09:53:00;7.00;99.90
31046;DHT22;17711;54.018;9.300;2023-01-09T09:55:32;7.00;99.90
31046;DHT22;17711;54.018;9.300;2023-01-09T09:58:05;7.00;99.90
31046;DHT22;17711;54.018;9.300;2023-01-09T10:00:34;6.90;99.90
31046;DHT22;17711;54.018;9.300;2023-01-09T10:03:05;6.80;99.90
31046;DHT22;17711;54.018;9.300;2023-01-09T10:05:38;6.80;99.90
31046;DHT22;17711;54.018;9.300;2023-01-09T10:08:14;6.70;99.90
31046;DHT22;17711;54.018;9.300;2023-01-09T10:10:51;6.60;99.90
31046;DHT22;17711;54.018;9.300;2023-01-09T10:13:24;6.50;99.90
31046;DHT22;17711;54.018;9.300;2023-01-09T10:16:21;6.50;99.90
31046;DHT22;17711;54.018;9.300;2023-01-09T10:19:01;6.50;99.90
31046;DHT22;17711;54.018;9.300;2023-01-09T10:21:39;6.50;99.90
31046;DHT22;17711;54.018;9.300;2023-01-09T10:27:16;6.60;99.90
31046;DHT22;17711;54.018;9.300;2023-01-09T10:29:58;6.50;99.90
31046;DHT22;17711;54.018;9.300;2023-01-09T10:32:42;6.50;99.90
31046;DHT22;17711;54.018;9.300;2023-01-09T10:38:23;6.50;99.90
31046;DHT22;17711;54.018;9.300;2023-01-09T10:40:56;6.50;99.90
31046;DHT22;17711;54.018;9.300;2023-01-09T10:43:33;6.50;99.90
31046;DHT22;17711;54.018;9.300;2023-01-09T10:46:10;6.50;99.90
31046;DHT22;17711;54.018;9.300;2023-01-09T10:48:54;6.60;99.90
31046;DHT22;17711;54.018;9.300;2023-01-09T10:51:24;6.60;99.90
31046;DHT22;17711;54.018;9.300;2023-01-09T10:53:55;6.60;99.90
31046;DHT22;17711;54.018;9.300;2023-01-09T10:56:27;6.60;99.90
31046;DHT22;17711;54.018;9.300;2023-01-09T10:58:56;6.70;99.90
31046;DHT22;17711;54.018;9.300;2023-01-09T11:01:27;6.60;99.90
31046;DHT22;17711;54.018;9.300;2023-01-09T11:03:56;6.70;99.90
31046;DHT22;17711;54.018;9.300;2023-01-09T11:06:35;6.60;99.90
31046;DHT22;17711;54.018;9.300;2023-01-09T11:09:09;6.70;99.90
31046;DHT22;17711;54.018;9.300;2023-01-09T11:11:41;6.70;99.90
31046;DHT22;17711;54.018;9.300;2023-01-09T11:14:14;6.70;99.90
31046;DHT22;17711;54.018;9.300;2023-01-09T11:16:53;6.70;99.90
31046;DHT22;17711;54.018;9.300;2023-01-09T11:19:23;6.80;99.90
31046;DHT22;17711;54.018;9.300;2023-01-09T11:22:05;6.70;99.90
31046;DHT22;17711;54.018;9.300;2023-01-09T11:24:34;6.80;99.90
31046;DHT22;17711;54.018;9.300;2023-01-09T11:27:21;6.90;99.90
31046;DHT22;17711;54.018;9.300;2023-01-09T11:30:20;6.90;99.90
31046;DHT22;17711;54.018;9.300;2023-01-09T11:32:56;7.00;99.90
31046;DHT22;17711;54.018;9.300;2023-01-09T11:35:28;7.00;99.90
31046;DHT22;17711;54.018;9.300;2023-01-09T11:38:06;7.20;99.90
31046;DHT22;17711;54.018;9.300;2023-01-09T11:40:48;7.30;99.90
31046;DHT22;17711;54.018;9.300;2023-01-09T11:43:20;7.50;99.90
31046;DHT22;17711;54.018;9.300;2023-01-09T11:45:53;7.70;99.90
31046;DHT22;17711;54.018;9.300;2023-01-09T11:48:35;7.70;99.90
31046;DHT22;17711;54.018;9.300;2023-01-09T11:51:17;7.80;99.90
31046;DHT22;17711;54.018;9.300;2023-01-09T11:54:04;7.90;99.90
31046;DHT22;17711;54.018;9.300;2023-01-09T11:56:35;7.90;99.90
31046;DHT22;17711;54.018;9.300;2023-01-09T11:59:09;7.90;99.90
31046;DHT22;17711;54.018;9.300;2023-01-09T12:02:13;7.80;99.90
31046;DHT22;17711;54.018;9.300;2023-01-09T12:04:51;7.80;99.90
31046;DHT22;17711;54.018;9.300;2023-01-09T12:07:48;7.80;99.90
31046;DHT22;17711;54.018;9.300;2023-01-09T12:10:31;7.90;99.90
31046;DHT22;17711;54.018;9.300;2023-01-09T12:13:31;7.90;99.90
31046;DHT22;17711;54.018;9.300;2023-01-09T12:16:09;8.00;99.90
31046;DHT22;17711;54.018;9.300;2023-01-09T12:18:56;7.90;99.90
31046;DHT22;17711;54.018;9.300;2023-01-09T12:21:33;7.90;99.90
31046;DHT22;17711;54.018;9.300;2023-01-09T12:24:34;7.90;99.90
31046;DHT22;17711;54.018;9.300;2023-01-09T12:27:17;7.90;99.90
31046;DHT22;17711;54.018;9.300;2023-01-09T12:30:09;7.90;99.90
31046;DHT22;17711;54.018;9.300;2023-01-09T12:32:52;7.90;99.90
31046;DHT22;17711;54.018;9.300;2023-01-09T12:35:36;7.80;99.90
31046;DHT22;17711;54.018;9.300;2023-01-09T12:38:22;7.90;99.90
31046;DHT22;17711;54.018;9.300;2023-01-09T12:44:07;7.90;99.90
31046;DHT22;17711;54.018;9.300;2023-01-09T12:46:40;8.00;99.90
31046;DHT22;17711;54.018;9.300;2023-01-09T12:49:27;8.00;99.90
31046;DHT22;17711;54.018;9.300;2023-01-09T12:52:03;8.00;99.90
31046;DHT22;17711;54.018;9.300;2023-01-09T12:54:38;8.00;99.90
31046;DHT22;17711;54.018;9.300;2023-01-09T12:57:16;8.00;99.90
31046;DHT22;17711;54.018;9.300;2023-01-09T12:59:51;8.00;99.90
31046;DHT22;17711;54.018;9.300;2023-01-09T13:02:26;8.00;99.90
31046;DHT22;17711;54.018;9.300;2023-01-09T13:05:02;8.00;99.90
31046;DHT22;17711;54.018;9.300;2023-01-09T13:07:39;8.00;99.90
31046;DHT22;17711;54.018;9.300;2023-01-09T13:10:18;7.90;99.90
31046;DHT22;17711;54.018;9.300;2023-01-09T13:12:49;7.90;99.90
31046;DHT22;17711;54.018;9.300;2023-01-09T13:15:25;7.90;99.90
31046;DHT22;17711;54.018;9.300;2023-01-09T13:18:04;8.00;99.90
31046;DHT22;17711;54.018;9.300;2023-01-09T13:20:39;8.00;99.90
31046;DHT22;17711;54.018;9.300;2023-01-09T13:23:14;8.00;99.90
31046;DHT22;17711;54.018;9.300;2023-01-09T13:25:47;8.00;99.90
31046;DHT22;17711;54.018;9.300;2023-01-09T13:28:19;8.00;99.90
31046;DHT22;17711;54.018;9.300;2023-01-09T13:31:03;8.00;99.90
31046;DHT22;17711;54.018;9.300;2023-01-09T13:33:36;8.00;99.90
31046;DHT22;17711;54.018;9.300;2023-01-09T13:36:06;8.10;99.90
31046;DHT22;17711;54.018;9.300;2023-01-09T13:38:37;8.10;99.90
31046;DHT22;17711;54.018;9.300;2023-01-09T13:41:11;8.10;99.90
31046;DHT22;17711;54.018;9.300;2023-01-09T13:43:59;8.00;99.90
31046;DHT22;17711;54.018;9.300;2023-01-09T13:46:32;8.10;99.90
31046;DHT22;17711;54.018;9.300;2023-01-09T13:49:03;8.00;99.90
31046;DHT22;17711;54.018;9.300;2023-01-09T13:51:56;8.00;99.90
31046;DHT22;17711;54.018;9.300;2023-01-09T13:58:20;8.10;99.90
31046;DHT22;17711;54.018;9.300;2023-01-09T14:00:53;8.10;99.90
31046;DHT22;17711;54.018;9.300;2023-01-09T14:03:24;8.10;99.90
31046;DHT22;17711;54.018;9.300;2023-01-09T14:06:17;8.10;99.90
31046;DHT22;17711;54.018;9.300;2023-01-09T14:08:48;8.00;99.90
31046;DHT22;17711;54.018;9.300;2023-01-09T14:11:19;8.10;99.90
31046;DHT22;17711;54.018;9.300;2023-01-09T14:14:03;8.00;99.90
31046;DHT22;17711;54.018;9.300;2023-01-09T14:16:34;8.00;99.90
31046;DHT22;17711;54.018;9.300;2023-01-09T14:19:19;8.00;99.90
31046;DHT22;17711;54.018;9.300;2023-01-09T14:21:51;8.00;99.90
31046;DHT22;17711;54.018;9.300;2023-01-09T14:24:23;8.00;99.90
31046;DHT22;17711;54.018;9.300;2023-01-09T14:26:55;8.00;99.90
31046;DHT22;17711;54.018;9.300;2023-01-09T14:29:42;7.90;99.90
31046;DHT22;17711;54.018;9.300;2023-01-09T14:32:41;7.90;99.90
31046;DHT22;17711;54.018;9.300;2023-01-09T14:35:17;7.90;99.90
31046;DHT22;17711;54.018;9.300;2023-01-09T14:38:00;7.90;99.90
31046;DHT22;17711;54.018;9.300;2023-01-09T14:40:29;7.90;99.90
31046;DHT22;17711;54.018;9.300;2023-01-09T14:43:17;8.00;99.90
31046;DHT22;17711;54.018;9.300;2023-01-09T14:45:50;7.90;99.90
31046;DHT22;17711;54.018;9.300;2023-01-09T14:48:20;7.90;99.90
31046;DHT22;17711;54.018;9.300;2023-01-09T14:50:51;7.80;99.90
31046;DHT22;17711;54.018;9.300;2023-01-09T14:53:23;7.80;99.90
31046;DHT22;17711;54.018;9.300;2023-01-09T14:55:54;7.80;99.90
31046;DHT22;17711;54.018;9.300;2023-01-09T14:58:25;7.80;99.90
31046;DHT22;17711;54.018;9.300;2023-01-09T15:00:59;7.70;99.90
31046;DHT22;17711;54.018;9.300;2023-01-09T15:03:38;7.60;99.90
31046;DHT22;17711;54.018;9.300;2023-01-09T15:06:13;7.60;99.90
31046;DHT22;17711;54.018;9.300;2023-01-09T15:08:43;7.70;99.90
31046;DHT22;17711;54.018;9.300;2023-01-09T15:11:13;7.70;99.90
31046;DHT22;17711;54.018;9.300;2023-01-09T15:13:46;7.70;99.90
31046;DHT22;17711;54.018;9.300;2023-01-09T15:16:22;7.70;99.90
31046;DHT22;17711;54.018;9.300;2023-01-09T15:18:58;7.70;99.90
31046;DHT22;17711;54.018;9.300;2023-01-09T15:21:31;7.70;99.90
31046;DHT22;17711;54.018;9.300;2023-01-09T15:24:19;7.70;99.90
31046;DHT22;17711;54.018;9.300;2023-01-09T15:26:57;7.70;99.90
31046;DHT22;17711;54.018;9.300;2023-01-09T15:29:30;7.70;99.90
31046;DHT22;17711;54.018;9.300;2023-01-09T15:32:08;7.70;99.90
31046;DHT22;17711;54.018;9.300;2023-01-09T15:34:42;7.80;99.90
31046;DHT22;17711;54.018;9.300;2023-01-09T15:37:24;7.80;99.90
31046;DHT22;17711;54.018;9.300;2023-01-09T15:40:07;7.80;99.90
31046;DHT22;17711;54.018;9.300;2023-01-09T15:42:51;7.70;99.90
31046;DHT22;17711;54.018;9.300;2023-01-09T15:45:32;7.60;99.90
31046;DHT22;17711;54.018;9.300;2023-01-09T15:48:21;7.60;99.90
31046;DHT22;17711;54.018;9.300;2023-01-09T15:50:56;7.60;99.90
31046;DHT22;17711;54.018;9.300;2023-01-09T15:53:39;7.60;99.90
31046;DHT22;17711;54.018;9.300;2023-01-09T15:56:15;7.60;99.90
31046;DHT22;17711;54.018;9.300;2023-01-09T15:58:50;7.60;99.90
31046;DHT22;17711;54.018;9.300;2023-01-09T16:01:27;7.60;99.90
31046;DHT22;17711;54.018;9.300;2023-01-09T16:04:04;7.60;99.90
31046;DHT22;17711;54.018;9.300;2023-01-09T16:06:42;7.60;99.90
31046;DHT22;17711;54.018;9.300;2023-01-09T16:09:19;7.60;99.90
31046;DHT22;17711;54.018;9.300;2023-01-09T16:11:57;7.60;99.90
31046;DHT22;17711;54.018;9.300;2023-01-09T16:14:33;7.50;99.90
31046;DHT22;17711;54.018;9.300;2023-01-09T16:17:07;7.60;99.90
31046;DHT22;17711;54.018;9.300;2023-01-09T16:19:48;7.60;99.90
31046;DHT22;17711;54.018;9.300;2023-01-09T16:22:21;7.60;99.90
31046;DHT22;17711;54.018;9.300;2023-01-09T16:24:56;7.60;99.90
31046;DHT22;17711;54.018;9.300;2023-01-09T16:27:36;7.60;99.90
31046;DHT22;17711;54.018;9.300;2023-01-09T16:30:23;7.60;99.90
31046;DHT22;17711;54.018;9.300;2023-01-09T16:32:54;7.70;99.90
31046;DHT22;17711;54.018;9.300;2023-01-09T16:35:25;7.70;99.90
31046;DHT22;17711;54.018;9.300;2023-01-09T16:37:57;7.70;99.90
31046;DHT22;17711;54.018;9.300;2023-01-09T16:40:28;7.70;99.90
31046;DHT22;17711;54.018;9.300;2023-01-09T16:42:59;7.70;99.90
31046;DHT22;17711;54.018;9.300;2023-01-09T16:45:30;7.60;99.90
31046;DHT22;17711;54.018;9.300;2023-01-09T16:48:14;7.60;99.90
31046;DHT22;17711;54.018;9.300;2023-01-09T16:50:54;7.60;99.90
31046;DHT22;17711;54.018;9.300;2023-01-09T16:53:26;7.60;99.90